Terminal Aerodrome Forecast
Issued by NWS Charleston, WV

Current Version | Previous Version | Text Only | Print | Product List | Glossary Off
Versions: 1 2 3 4 5 6 7 8 9 10 11 12 13 14 15 16 17 18 19 20 21 22 23

503
FTUS41 KRLX 250552 CCA
TAFPKB
TAF COR
KPKB 250552Z 2506/2606 19003KT P6SM SCT045 BKN070
      TEMPO 2509/2511 SHRA BKN045
     FM251500 22005KT P6SM SCT070
     FM251800 21009KT P6SM SCT050
     FM260000 21002KT P6SM SCT070=

USA.gov is the U.S. government's official web portal to all federal, state and local government web resources and services.